Home > Products > Valid Products > TAF

000
FTUS43 KMPX 021100
TAFEAU
TAF
KEAU 021140Z 0212/0312 00000KT 4SM BR SCT020 OVC030
     FM021400 00000KT 5SM BR SCT012 OVC020
     FM021900 31004KT 6SM -RA SCT008 OVC012
     FM022100 31004KT 4SM -RA OVC009
     FM030300 29005KT P6SM BKN015
     FM030600 28007KT P6SM SCT020 BKN100=



000
FTUS43 KMPX 021100
TAFAXN
TAF
KAXN 021140Z 0212/0312 30005KT P6SM SCT060 BKN150
     FM021600 29006KT P6SM VCSH SCT020 OVC060
     FM022200 26007KT P6SM SCT040
     FM030700 28012G20KT P6SM BKN020=



000
FTUS43 KMPX 021100
TAFSTC
TAF
KSTC 021140Z 0212/0312 31002KT 4SM BR OVC003
     FM021400 30006KT 4SM BR SCT004 OVC007
     FM021600 28005KT 6SM -RA BR BKN014 OVC025
     FM022200 28005KT P6SM SCT020 BKN100
     FM030900 29011G19KT P6SM SCT025=



000
FTUS43 KMPX 021100
TAFRWF
TAF
KRWF 021140Z 0212/0312 32003KT 6SM BR SCT040 OVC090
     FM021500 31008KT 6SM -RA BR SCT020 OVC040
     FM022100 28008KT P6SM SCT040 BKN090
     FM030300 28012KT P6SM SKC
     FM030800 30016G24KT P6SM SCT030=



000
FTUS43 KMPX 021100
TAFMSP
TAF
KMSP 021140Z 0212/0318 00000KT 4SM BR OVC005
     FM021400 34003KT 5SM BR SCT004 OVC007
     FM021700 31006KT 6SM -RA SCT008 OVC015
     FM021900 31008KT 4SM -RA SCT010 OVC018
     FM022300 29006KT P6SM SCT020 BKN080
     FM030900 30012KT P6SM SCT030
     FM031300 30016G25KT P6SM BKN030=



000
FTUS43 KMPX 020900 CCA
TAFSTC
TAF COR
KSTC 020916Z 0209/0306 31003KT 1/2SM FG VV002
     FM021400 30006KT 2SM BR SCT004 OVC007
     FM021800 28005KT 6SM -RA BR BKN014 OVC025
     FM030000 28005KT P6SM SCT020 BKN100=



000
FTUS43 KMPX 020900 AAB
TAFEAU
TAF AMD
KEAU 020913Z 0209/0306 VRB03KT 3SM BR SCT007 BKN025
     FM021200 00000KT 2SM BR OVC006
     FM021600 00000KT 6SM BR OVC009
     FM022200 31004KT 6SM -RA SCT008 OVC012
     FM030400 30005KT P6SM BKN015=



000
FTUS43 KMPX 020900 AAA
TAFRWF
TAF AMD
KRWF 020911Z 0209/0306 32004KT P6SM SCT040
     FM021600 31008KT 6SM -RA BR BKN020 OVC040
     FM022200 29007KT P6SM SCT040=



000
FTUS43 KMPX 020900 AAB
TAFSTC
TAF AMD
KSTC 020910Z 0209/0306 32004KT 2SM BR OVC002
     FM021000 31005KT 1/2SM FG VV002
     FM021400 30006KT 2SM BR SCT004 OVC007
     FM021800 28005KT 6SM -RA BR BKN014 OVC025
     FM030000 28005KT P6SM SCT020 BKN100=



000
FTUS43 KMPX 020900 AAA
TAFMSP
TAF AMD
KMSP 020905Z 0209/0312 00000KT 2SM BR OVC003
     FM021400 34003KT 3SM BR SCT004 OVC007
     FM021500 32004KT P6SM OVC009
     FM021900 31006KT 6SM -RA SCT008 OVC015
     FM030200 29006KT P6SM SCT050 BKN150
     FM030900 30012KT P6SM SCT020=



000
FTUS43 KMPX 020700 AAA
TAFSTC
TAF AMD
KSTC 020727Z 0207/0306 VRB03KT 3SM BR OVC004
     FM021000 00000KT 1/2SM FG VV002
     FM021400 30005KT 2SM BR OVC004
     FM021700 28005KT 6SM -RA BR BKN014 OVC025
     FM030000 28005KT P6SM SCT020 BKN100=



000
FTUS43 KMPX 020700 AAA
TAFEAU
TAF AMD
KEAU 020725Z 0207/0306 VRB03KT 3SM BR SCT007 BKN025
     FM021000 00000KT 2SM BR OVC007
      TEMPO 0211/0214 1/2SM FG VV002
     FM021700 00000KT 6SM BR OVC009
     FM022200 31004KT 6SM -RA OVC010=



000
FTUS43 KMPX 020500
TAFMSP
TAF
KMSP 020538Z 0206/0312 00000KT 3SM BR BKN007
     FM021000 00000KT 1/2SM FG VV003
     FM021400 34003KT 3SM BR SCT004 OVC007
     FM021500 32004KT P6SM OVC009
     FM022000 31006KT 6SM -RA OVC015
     FM030200 29006KT P6SM SCT050 BKN150
     FM030900 30012KT P6SM SCT020=



000
FTUS43 KMPX 020500
TAFAXN
TAF
KAXN 020538Z 0206/0306 27005KT P6SM SCT060 BKN150
     FM021700 29006KT P6SM -SHRA SCT020 OVC060
     FM022200 26007KT P6SM SCT040
     FM030400 28012G20KT P6SM BKN030=



000
FTUS43 KMPX 020500
TAFSTC
TAF
KSTC 020538Z 0206/0306 VRB03KT 3SM BR OVC004
     FM020800 00000KT 1/2SM FG VV002
     FM021400 30005KT 2SM BR SCT004 OVC007
     FM021700 28005KT 6SM -RA BR BKN014 OVC025
     FM030000 28005KT P6SM SCT020 BKN100=



000
FTUS43 KMPX 020500
TAFEAU
TAF
KEAU 020538Z 0206/0306 VRB03KT 3SM BR SCT007 BKN025
     FM020900 00000KT 2SM BR OVC007
      TEMPO 0210/0213 1/2SM FG VV002
     FM021500 00000KT 3SM BR OVC007
     FM021700 00000KT 6SM BR OVC009
     FM022200 31004KT 6SM -RA OVC010=



000
FTUS43 KMPX 020500
TAFRWF
TAF
KRWF 020538Z 0206/0306 32004KT P6SM SCT040
     FM021500 31008KT 6SM -RA BR BKN020 OVC040
     FM022200 29007KT P6SM SCT040=



000
FTUS43 KMPX 020400 AAB
TAFEAU
TAF AMD
KEAU 020404Z 0204/0224 00000KT 1SM BR VV003
     FM020600 00000KT 1/4SM FG VV001
     FM021500 00000KT 3SM BR OVC007
     FM021700 29003KT P6SM OVC009
     FM022200 31004KT 6SM -RA OVC010=



000
FTUS43 KMPX 020300 AAA
TAFEAU
TAF AMD
KEAU 020300Z 0203/0224 15005KT 5SM BR SCT015 OVC025
     FM020700 VRB03KT 4SM BR OVC007
     FM020800 00000KT 1SM BR VV003
     FM020900 00000KT 1/4SM FG VV001
     FM021500 00000KT 3SM BR OVC007
     FM021700 29003KT P6SM OVC009
     FM022200 31004KT 6SM -RA OVC010=



000
FTUS43 KMPX 020200 AAA
TAFMSP
TAF AMD
KMSP 020245Z 0203/0306 14005KT 3SM BR OVC008
     FM020600 00000KT 1 1/2SM BR OVC004
      TEMPO 0209/0213 1SM BR OVC003
     FM021500 32004KT P6SM OVC009
     FM022000 35006KT 6SM -RA OVC010
     FM030400 33008KT P6SM SCT010 OVC070=



000
FTUS43 KMPX 020100 AAA
TAFSTC
TAF AMD
KSTC 020142Z 0202/0224 15006KT P6SM OVC008
     FM020700 30004KT 4SM BR OVC007
     FM021300 30005KT P6SM SCT007 BKN040=



000
FTUS43 KMPX 020000 CCA
TAFMSP
TAF COR
KMSP 020027Z 0200/0306 14005KT 3SM BR OVC004
     FM020400 00000KT 1 1/2SM BR OVC004
      TEMPO 0209/0213 1SM BR OVC003
     FM021500 32004KT P6SM OVC009
     FM022000 35006KT 6SM -RA OVC010
     FM030400 33008KT P6SM SCT010 OVC070=



000
FTUS43 KMPX 012300 RRA
TAFMSP
TAF
KMSP 012343Z 0200/0306 14005KT 3SM BR OVC005
     FM020500 00000KT 2SM BR OVC004
      TEMPO 0209/0213 1SM BR OVC003
     FM021500 32004KT P6SM OVC009
     FM022000 35006KT 6SM -RA OVC010
     FM030400 33008KT P6SM SCT010 OVC070=



000
FTUS43 KMPX 012300 RRA
TAFRWF
TAF
KRWF 012343Z 0200/0224 15005KT P6SM SCT045
     FM020300 26006KT P6SM SCT040
     FM020700 32005KT P6SM SCT040
     FM021400 31007KT P6SM VCSH OVC090=



000
FTUS43 KMPX 012300 RRA
TAFEAU
TAF
KEAU 012343Z 0200/0224 15005KT 6SM BR SCT008 OVC018
     FM020300 VRB03KT 4SM BR OVC007
     FM020600 00000KT 1SM BR VV003
     FM020800 00000KT 1/4SM FG VV001
     FM021500 00000KT 3SM BR OVC007
     FM021700 29003KT P6SM OVC009
     FM022200 31004KT 6SM -RA OVC010=



000
FTUS43 KMPX 012300 RRA
TAFAXN
TAF
KAXN 012343Z 0200/0224 18008KT P6SM SCT040
     FM020300 25005KT P6SM SCT040
     FM020600 32005KT 6SM BR SCT040 BKN100
     FM021600 28006KT P6SM SCT040 BKN100 OVC250=



000
FTUS43 KMPX 012300 RRA
TAFSTC
TAF
KSTC 012343Z 0200/0224 15006KT P6SM OVC008
      TEMPO 0200/0204 SCT007
     FM020400 VRB03KT P6SM SCT007 BKN100
     FM020700 30004KT 4SM BR OVC007
     FM021300 30005KT P6SM SCT007 BKN040=



000
FTUS43 KMPX 012100 AAA
TAFAXN
TAF AMD
KAXN 012155Z 0122/0218 18010KT P6SM SCT010 BKN045
     FM020000 25007KT P6SM SCT020 BKN080
     FM020600 30005KT 6SM BR BKN100 BKN250
     FM021500 32006KT P6SM OVC100=



000
FTUS43 KMPX 012100 AAA
TAFEAU
TAF AMD
KEAU 012146Z 0122/0218 15005KT P6SM SCT009 OVC020
     FM020100 15004KT P6SM OVC009
     FM020300 17004KT 3SM BR OVC005
     FM020600 VRB02KT 1SM BR VV003
     FM020800 00000KT 1/4SM FG VV001
     FM021500 VRB02KT 4SM BR OVC007=



000
FTUS43 KMPX 012100 AAB
TAFRWF
TAF AMD
KRWF 012144Z 0122/0218 16011KT P6SM VCSH SCT030 BKN070
      TEMPO 0122/0124 3/4SM +TSRA OVC015CB
     FM020000 23005KT P6SM SCT020 BKN090
     FM020600 29006KT P6SM BKN200
     FM021300 32005KT P6SM BKN060 OVC100=



000
FTUS43 KMPX 012000 AAA
TAFMSP
TAF AMD
KMSP 012011Z 0120/0224 15007KT P6SM OVC008
     FM020200 20005KT 6SM BR OVC008
     FM020700 VRB03KT 4SM BR OVC007
      TEMPO 0210/0213 1SM BR OVC003
     FM021500 33004KT P6SM OVC009
     FM021800 36006KT 5SM -RA OVC009=



000
FTUS43 KMPX 011800 AAA
TAFRWF
TAF AMD
KRWF 011814Z 0118/0218 15014KT P6SM SCT010 SCT030
     FM012000 21007KT P6SM VCSH SCT020 BKN030 BKN060
     FM012300 23005KT P6SM SCT020 BKN090
     FM020600 29006KT P6SM BKN200
     FM021300 32005KT P6SM BKN060 OVC100=



000
FTUS43 KMPX 011700
TAFSTC
TAF
KSTC 011736Z 0118/0218 14011KT P6SM OVC006
     FM012000 16009KT P6SM VCSH BKN008 OVC015
     FM012300 18006KT P6SM OVC020
     FM020400 22004KT P6SM BKN100
     FM020800 30004KT 6SM BR SCT010 BKN070
     FM021300 32005KT P6SM OVC050=



000
FTUS43 KMPX 011700
TAFAXN
TAF
KAXN 011736Z 0118/0218 15012KT 4SM BR OVC005
     FM011900 18011KT P6SM BKN007 OVC015
     FM012000 21008KT P6SM VCSH BKN015 BKN050
     FM020000 25007KT P6SM SCT020 BKN080
     FM020600 30005KT 6SM BR BKN100 BKN250
     FM021500 32006KT P6SM OVC100=



000
FTUS43 KMPX 011700
TAFMSP
TAF
KMSP 011736Z 0118/0224 12012KT 5SM -SHRA BKN008 BKN016 OVC025
     FM012000 14009KT 6SM BR SCT008 OVC016
     FM012200 15007KT P6SM SCT010 OVC020
     FM020200 20005KT 6SM BR OVC015
     FM020700 VRB03KT 4SM BR OVC007
      TEMPO 0210/0213 1SM BR OVC003
     FM021500 33004KT P6SM OVC009
     FM021800 36006KT 5SM -RA OVC009=



000
FTUS43 KMPX 011700
TAFRWF
TAF
KRWF 011736Z 0118/0218 15014KT P6SM BKN008 OVC012
     FM012000 21007KT P6SM VCSH SCT020 BKN030 BKN060
     FM012300 23005KT P6SM SCT020 BKN090
     FM020600 29006KT P6SM BKN200
     FM021300 32005KT P6SM BKN060 OVC100=



000
FTUS43 KMPX 011700
TAFEAU
TAF
KEAU 011736Z 0118/0218 13011KT 4SM -RA BR BKN009 OVC025
     FM012300 15009KT P6SM -SHRA BKN010 OVC020
     FM020300 17004KT 3SM BR OVC005
     FM020600 VRB02KT 1SM BR VV003
     FM020800 00000KT 1/4SM FG VV001
     FM021500 VRB02KT 4SM BR OVC007=



000
FTUS43 KMPX 011600 AAA
TAFRWF
TAF AMD
KRWF 011607Z 0116/0212 14013KT P6SM OVC008
     FM011800 15014KT P6SM BKN008 OVC012
     FM012000 21007KT P6SM VCSH SCT020 BKN030 BKN060
     FM012300 23005KT P6SM SCT020 BKN090
     FM020600 29006KT P6SM BKN200=



000
FTUS43 KMPX 011600 AAB
TAFSTC
TAF AMD
KSTC 011606Z 0116/0212 14011KT P6SM OVC006
     FM011800 16009KT P6SM BKN008 OVC015
     FM012200 18006KT P6SM SCT020 BKN100
     FM020400 22004KT P6SM BKN100
     FM020800 30004KT 6SM BR SCT010 BKN070=



000
FTUS43 KMPX 011600 AAB
TAFAXN
TAF AMD
KAXN 011605Z 0116/0212 15012KT 4SM BR OVC004
     FM011800 18011KT P6SM BKN007 OVC015
     FM012000 21008KT P6SM VCSH SCT030 BKN050
     FM012300 25007KT P6SM SCT020 BKN080
     FM020600 30006KT P6SM BKN250=



000
FTUS43 KMPX 011400 AAC
TAFMSP
TAF AMD
KMSP 011458Z 0115/0218 12012KT 5SM -SHRA OVC008
     FM011900 14009KT 6SM -SHRA BR BKN008 OVC010
     FM012200 15007KT P6SM VCSH SCT015 OVC022
     FM020200 20005KT P6SM SCT015 BKN070
     FM020700 VRB03KT 4SM BR BKN007
     FM021500 33003KT P6SM OVC009=



000
FTUS43 KMPX 011400 AAA
TAFSTC
TAF AMD
KSTC 011431Z 0115/0212 14010KT P6SM SCT008 OVC012
      TEMPO 0115/0116 3SM -RA BR OVC008
     FM011700 16009KT P6SM OVC015
     FM012200 18006KT P6SM SCT020 BKN100
     FM020400 22004KT P6SM BKN100
     FM020800 30004KT 6SM BR SCT010 BKN070=



000
FTUS43 KMPX 011400 AAB
TAFMSP
TAF AMD
KMSP 011415Z 0114/0218 13012KT 5SM -SHRA OVC008
     FM011600 14009KT 6SM -SHRA BR BKN008 OVC010
     FM012200 15007KT P6SM VCSH SCT015 OVC022
     FM020200 20005KT P6SM SCT015 BKN070
     FM020700 VRB03KT 4SM BR BKN007
     FM021500 33003KT P6SM OVC009=



000
FTUS43 KMPX 011300 AAA
TAFAXN
TAF AMD
KAXN 011316Z 0113/0212 15012KT 4SM BR OVC004
     FM011430 17011KT P6SM OVC007
     FM011600 18011KT P6SM BKN015
     FM012000 21008KT P6SM VCSH SCT030 BKN050
     FM012300 25007KT P6SM SCT020 BKN080
     FM020600 30006KT P6SM BKN250=



000
FTUS43 KMPX 011300 AAA
TAFEAU
TAF AMD
KEAU 011316Z 0113/0212 13010KT 6SM -SHRA BR BKN009 OVC020
     FM011500 14011KT 4SM -RA BR OVC009
     FM012300 15009KT P6SM -SHRA SCT014 OVC020
     FM020300 17004KT 3SM BR OVC005
     FM020600 VRB02KT 1SM BR VV003
     FM020800 00000KT 1/4SM FG VV001=



000
FTUS43 KMPX 011300 AAA
TAFMSP
TAF AMD
KMSP 011309Z 0113/0218 14012KT 5SM -SHRA BKN008 OVC012
     FM011600 14009KT 6SM -SHRA BR BKN007 OVC010
     FM012200 15007KT P6SM VCSH SCT015 OVC022
     FM020200 20005KT P6SM SCT015 BKN070
     FM020700 VRB03KT 4SM BR BKN007
     FM021500 33003KT P6SM OVC009=



000
FTUS43 KMPX 011100 RRA
TAFEAU
TAF
KEAU 011146Z 0112/0212 13010KT P6SM -SHRA SCT008 OVC012
     FM011500 14011KT 4SM -RA BR SCT007 OVC014
     FM012300 15009KT P6SM -SHRA SCT014 OVC020
     FM020300 17004KT 3SM BR OVC005
     FM020600 VRB02KT 1SM BR VV003
     FM020800 00000KT 1/4SM FG VV001=



000
FTUS43 KMPX 011100 RRA
TAFSTC
TAF
KSTC 011146Z 0112/0212 14010KT P6SM SCT008 OVC012
     FM011700 16009KT P6SM OVC015
     FM012200 18006KT P6SM SCT020 BKN100
     FM020400 22004KT P6SM BKN100
     FM020800 30004KT 6SM BR SCT010 BKN070=



000
FTUS43 KMPX 011100 RRA
TAFRWF
TAF
KRWF 011146Z 0112/0212 14013KT P6SM SCT008 OVC012
     FM011600 17009KT P6SM OVC018
     FM012000 21007KT P6SM VCSH SCT030 BKN060
     FM012300 23005KT P6SM SCT020 BKN090
     FM020600 29006KT P6SM BKN200=



000
FTUS43 KMPX 011100 RRA
TAFAXN
TAF
KAXN 011146Z 0112/0212 15012KT 2SM BR OVC003
     FM011430 17011KT P6SM OVC007
     FM011600 18011KT P6SM BKN015
     FM012000 21008KT P6SM VCSH SCT030 BKN050
     FM012300 25007KT P6SM SCT020 BKN080
     FM020600 30006KT P6SM BKN250=



000
FTUS43 KMPX 011100 RRA
TAFMSP
TAF
KMSP 011146Z 0112/0218 14012KT P6SM -SHRA BKN020 OVC070
     FM011500 14009KT 6SM -SHRA BR SCT008 OVC015
     FM012200 15007KT P6SM VCSH SCT015 OVC022
     FM020200 20005KT P6SM SCT015 BKN070
     FM020700 VRB03KT 4SM BR BKN007
     FM021500 33003KT P6SM OVC009=



000
FTUS43 KMPX 011000 AAC
TAFAXN
TAF AMD
KAXN 011000Z 0110/0206 16012KT 1SM BR OVC003
     FM011430 18011KT P6SM OVC007
     FM011600 20011KT P6SM BKN015
     FM012000 21008KT P6SM SCT030 BKN100
     FM020000 27007KT P6SM SCT020 BKN080=



000
FTUS43 KMPX 010900 AAB
TAFAXN
TAF AMD
KAXN 010939Z 0110/0206 16014KT 3SM BR OVC004
     FM011100 17012KT 1SM BR OVC003
     FM011430 18011KT P6SM OVC007
     FM011600 20011KT P6SM BKN015
     FM012000 21008KT P6SM SCT030 BKN100
     FM020000 27007KT P6SM SCT020 BKN080=



000
FTUS43 KMPX 010800 AAA
TAFSTC
TAF AMD
KSTC 010851Z 0109/0206 13013KT P6SM OVC015
     FM011200 14010KT 6SM BR OVC008
     FM011700 16009KT P6SM OVC015
     FM012200 17006KT P6SM OVC030
     FM020300 22004KT 6SM BR SCT015 BKN100=



000
FTUS43 KMPX 010800 AAB
TAFEAU
TAF AMD
KEAU 010836Z 0109/0206 14010KT P6SM BKN015 OVC040
     FM011000 13010KT P6SM SCT008 OVC012
     FM011500 14011KT 6SM -RA BR SCT007 OVC015
     FM012300 15009KT 4SM -SHRA BR OVC008
     FM020300 17004KT 3SM BR OVC005=



000
FTUS43 KMPX 010800 AAA
TAFMSP
TAF AMD
KMSP 010835Z 0109/0212 14012KT P6SM SCT020 OVC100
     FM011300 14009KT P6SM -SHRA SCT008 OVC015
     FM011800 15009KT 6SM -SHRA BR BKN008 OVC012
     FM012200 15007KT P6SM VCSH SCT008 OVC015
     FM020200 20005KT P6SM SCT015 BKN070
     FM020700 26003KT 4SM BR BKN007=



000
FTUS43 KMPX 010700 AAA
TAFAXN
TAF AMD
KAXN 010757Z 0108/0206 16014KT 4SM BR OVC006
     FM011600 20011KT P6SM OVC015
     FM012000 21008KT P6SM SCT030 BKN100
     FM020000 27007KT P6SM SCT020 BKN080=



000
FTUS43 KMPX 010700 AAA
TAFEAU
TAF AMD
KEAU 010711Z 0107/0206 14010KT P6SM SCT015 OVC040
     FM011000 13010KT P6SM SCT008 OVC012
     FM011500 14011KT 6SM -RA BR SCT007 OVC015
     FM012300 15009KT 4SM -SHRA BR OVC008
     FM020300 17004KT 3SM BR OVC005=



000
FTUS43 KMPX 010500 RRA
TAFSTC
TAF
KSTC 010540Z 0106/0206 13013KT P6SM BKN080
     FM011000 14010KT 4SM BR OVC008
     FM011700 16009KT P6SM OVC015
     FM012200 17006KT P6SM OVC030
     FM020300 22004KT 6SM BR SCT015 BKN100=



000
FTUS43 KMPX 010500 RRA
TAFMSP
TAF
KMSP 010540Z 0106/0212 14012KT P6SM SCT050 OVC120
     FM010900 14011KT P6SM SCT008 OVC013
      TEMPO 0111/0113 BKN008
     FM011300 14009KT P6SM -SHRA SCT008 OVC015
     FM011800 15009KT 6SM -SHRA BR BKN008 OVC012
     FM012200 15007KT P6SM VCSH SCT008 OVC015
     FM020000 20005KT 6SM BR BKN015
     FM020700 26003KT 4SM BR BKN007=



000
FTUS43 KMPX 010500 RRA
TAFAXN
TAF
KAXN 010540Z 0106/0206 13014KT P6SM SCT050 BKN080
     FM010700 13015KT P6SM OVC015
     FM011000 15012KT 4SM BR OVC008
     FM011600 20011KT P6SM OVC015
     FM012000 21008KT P6SM SCT030 BKN100
     FM020000 27007KT P6SM SCT020 BKN080=



000
FTUS43 KMPX 010500 RRA
TAFEAU
TAF
KEAU 010540Z 0106/0206 14010KT P6SM BKN015 OVC040
     FM011000 13010KT 5SM BR BKN008 OVC020
     FM011600 14011KT 6SM -RA BR SCT007 OVC015
     FM012300 15009KT 4SM -SHRA BR OVC008
     FM020300 17004KT 3SM BR OVC005=



000
FTUS43 KMPX 010500 RRA
TAFRWF
TAF
KRWF 010540Z 0106/0206 15015KT P6SM SCT050 BKN090
     FM010700 15013KT P6SM OVC012
      TEMPO 0109/0113 3SM BR BKN008
     FM011600 18008KT P6SM OVC018
     FM012000 22007KT P6SM SCT030 BKN070
     FM020300 25006KT P6SM BKN100=



000
FTUS43 KMPX 010300 AAA
TAFAXN
TAF AMD
KAXN 010335Z 0104/0124 13018G24KT P6SM SCT050 BKN080
     FM010800 13017KT 6SM BR OVC015
     FM011000 15015KT 4SM BR OVC008
     FM011600 20011KT P6SM OVC015
     FM012200 21008KT P6SM OVC030=



000
FTUS43 KMPX 010300 AAA
TAFRWF
TAF AMD
KRWF 010334Z 0104/0124 13015G20KT P6SM SCT050 BKN090
     FM010800 15010KT 5SM BR OVC025
      TEMPO 0109/0113 3SM BR BKN008
     FM011600 18008KT P6SM OVC018
     FM012000 20006KT P6SM OVC030=



000
FTUS43 KMPX 010300 AAA
TAFEAU
TAF AMD
KEAU 010331Z 0104/0124 14010KT P6SM BKN015 OVC040
     FM011000 13010KT 5SM -SHRA BR BKN008 OVC020
     FM011400 14011KT 4SM -RA BR SCT007 OVC015
     FM012100 15009KT 6SM BR OVC020=



000
FTUS43 KMPX 010300 AAA
TAFMSP
TAF AMD
KMSP 010302Z 0103/0206 13014G24KT P6SM SCT050 OVC120
     FM010800 14011KT 6SM BR SCT015 OVC040
      TEMPO 0108/0112 BKN008
     FM011200 14009KT 5SM -RA BR SCT008 OVC015
     FM011800 15009KT 6SM BR BKN008
     FM012200 15007KT P6SM SCT008 OVC015=



000
FTUS43 KMPX 302300
TAFAXN
TAF
KAXN 302339Z 0100/0124 13018G24KT P6SM VCSH SCT050 BKN080
     FM010400 13017KT 6SM BR OVC015
     FM010600 15015KT 4SM BR OVC008
     FM011600 20011KT P6SM OVC015
     FM012200 21008KT P6SM OVC030=



000
FTUS43 KMPX 302300
TAFRWF
TAF
KRWF 302339Z 0100/0124 13015G20KT P6SM VCSH SCT060 BKN100
     FM010400 15012KT 6SM BR OVC009
     FM010800 15010KT 3SM BR OVC003
     FM011600 18008KT P6SM OVC012
     FM012000 20006KT P6SM OVC030=



000
FTUS43 KMPX 302300
TAFSTC
TAF
KSTC 302339Z 0100/0124 12012KT P6SM VCSH SCT050 BKN080
     FM010600 13013KT 6SM BR OVC007
     FM011000 16010KT 4SM BR OVC008
     FM011700 17009KT P6SM OVC015
     FM012200 17006KT P6SM OVC030=



000
FTUS43 KMPX 302300
TAFEAU
TAF
KEAU 302339Z 0100/0124 12007KT P6SM SCT030 BKN250
     FM010600 13008KT P6SM VCSH SCT015 OVC040
     FM011000 13010KT 5SM -SHRA BR BKN008 OVC020
     FM011400 14011KT 4SM -RA BR SCT007 OVC015
     FM012100 15009KT 6SM BR OVC020=



000
FTUS43 KMPX 302300
TAFMSP
TAF
KMSP 302339Z 0100/0206 12011KT P6SM SCT060 BKN250
     FM010300 13011KT P6SM VCSH BKN025 OVC050
     FM010800 14011KT 6SM BR BKN008 OVC015
     FM011200 14009KT 5SM -RA BR SCT008 OVC015
     FM011800 15009KT 6SM BR BKN008
     FM012200 15007KT P6SM SCT008 OVC015=



000
FTUS43 KMPX 302200 AAA
TAFAXN
TAF AMD
KAXN 302225Z 3022/0118 13018G24KT P6SM VCSH SCT050 BKN080
      TEMPO 3022/0101 6SM SHRA BR BKN040
     FM010400 13017KT 6SM BR OVC015
     FM010600 14015KT 3SM BR OVC003
     FM011600 20011KT P6SM OVC015=



000
FTUS43 KMPX 302200 AAA
TAFRWF
TAF AMD
KRWF 302224Z 3022/0118 14015G20KT P6SM VCSH SCT030 BKN080
      TEMPO 3022/3024 6SM SHRA BR BKN030
     FM010400 15012KT 6SM BR OVC009
     FM010800 15009KT 2SM BR OVC003
     FM011600 20008KT P6SM OVC007=



000
FTUS43 KMPX 302100 AAA
TAFMSP
TAF AMD
KMSP 302120Z 3021/0124 12011KT P6SM SCT050 BKN250
     FM010100 13011KT P6SM VCSH BKN025 OVC050
     FM010800 14011KT 6SM -SHRA BR BKN008 OVC015
     FM011200 11008KT 3SM -DZ BR OVC007
     FM011700 15009KT 6SM BR SCT008 OVC015=



000
FTUS43 KMPX 301700 CCA
TAFEAU
TAF COR
KEAU 301742Z 3018/0118 11009KT P6SM SCT020 SCT250
     FM302200 12007KT P6SM SCT030 BKN250
     FM010600 13008KT P6SM VCSH SCT015 OVC050
     FM010900 13010KT 6SM -SHRA BR BKN010 OVC035
     FM011200 14011KT 6SM -RA BR BKN007 OVC015=



000
FTUS43 KMPX 301700
TAFSTC
TAF
KSTC 301724Z 3018/0118 12008G15KT P6SM SCT015 BKN150
     FM010000 12012KT P6SM VCSH SCT015 OVC050
      TEMPO 0102/0105 6SM -SHRA BR OVC015
     FM010800 13013KT 6SM BR VCSH OVC007
     FM011000 16006KT 4SM BR OVC004
     FM011700 19009KT P6SM OVC015=



000
FTUS43 KMPX 301700
TAFRWF
TAF
KRWF 301724Z 3018/0118 11011G16KT P6SM OVC010
      TEMPO 3018/3021 SCT010 BKN080
     FM302100 14015G20KT P6SM VCSH BKN015 OVC030
      TEMPO 3021/3023 6SM SHRA BR OVC012
     FM010400 15012KT 6SM BR OVC009
     FM010800 15009KT 2SM BR OVC003
     FM011600 20008KT P6SM OVC007=



000
FTUS43 KMPX 301700
TAFAXN
TAF
KAXN 301724Z 3018/0118 12012G19KT P6SM SCT004 SCT012 OVC090
     FM302100 13018G24KT P6SM VCSH SCT006 BKN025 OVC050
      TEMPO 3022/0101 6SM SHRA BR OVC015
     FM010400 13017KT 6SM BR OVC015
     FM010600 14015KT 3SM BR OVC003
     FM011600 20011KT P6SM OVC015=



000
FTUS43 KMPX 301700
TAFEAU
TAF
KEAU 301724Z 3018/0118 11009KT P6SM SCT020 SCT250
      TEMPO 3018/3019 BKN015
     FM302200 12007KT P6SM SCT030 BKN250
     FM010600 13008KT P6SM VCSH SCT015 OVC050
     FM010900 13010KT 6SM -SHRA BR BKN010 OVC035
     FM011200 14011KT 6SM -RA BR BKN007 OVC015=



000
FTUS43 KMPX 301700
TAFMSP
TAF
KMSP 301724Z 3018/0124 11012KT P6SM SCT020 BKN250
     FM302000 12012G18KT P6SM SCT025 BKN050
     FM010100 13011KT P6SM VCSH BKN025 OVC050
     FM010800 14011KT 6SM -SHRA BR BKN008 OVC015
     FM011200 11008KT 3SM -DZ BR OVC007
     FM011700 15009KT 6SM BR SCT008 OVC015=



000
FTUS43 KMPX 301600 AAB
TAFMSP
TAF AMD
KMSP 301619Z 3016/0118 11012KT P6SM SCT016 BKN250
      TEMPO 3016/3017 BKN018
     FM302000 12012G19KT P6SM SCT025 BKN050
     FM010100 13011KT P6SM VCSH BKN025 OVC050
     FM010900 14011KT 6SM -SHRA BR BKN008 OVC015=



000
FTUS43 KMPX 301500 AAB
TAFRWF
TAF AMD
KRWF 301534Z 3016/0112 11011G16KT P6SM OVC007
      TEMPO 3016/3018 SCT009 BKN020
     FM301800 13014G21KT P6SM BKN020
     FM302100 14015G23KT P6SM VCTS SCT015CB OVC030
      TEMPO 3022/0101 2SM SHRA BR OVC012
     FM010400 15012KT 6SM BR OVC015
     FM010700 15009KT 2SM BR OVC008=



000
FTUS43 KMPX 301500 AAB
TAFAXN
TAF AMD
KAXN 301503Z 3015/0112 12014G20KT 6SM BR OVC005
     FM301600 12018G29KT P6SM SCT004 BKN009 OVC090
     FM301800 13020G28KT P6SM BKN015 OVC070
     FM302100 13021G27KT P6SM -SHRA BKN025 OVC050
      TEMPO 3022/0101 4SM SHRA BR OVC015
     FM010600 13017KT P6SM OVC015
     FM010900 14015KT 5SM BR OVC004=



000
FTUS43 KMPX 301400 AAA
TAFMSP
TAF AMD
KMSP 301425Z 3014/0118 10011G16KT P6SM OVC011
      TEMPO 3017/3018 BKN016
     FM301800 11012KT P6SM SCT020 BKN250
     FM302000 12012G19KT P6SM SCT025 BKN050
     FM010100 13011KT P6SM VCSH BKN025 OVC050
     FM010900 14011KT 6SM -SHRA BR BKN008 OVC015=



000
FTUS43 KMPX 301300 AAA
TAFRWF
TAF AMD
KRWF 301359Z 3014/0112 11011G16KT P6SM OVC007
     FM301600 12012G18KT P6SM OVC010
     FM301800 13014G21KT P6SM BKN020
     FM302100 14015G23KT P6SM VCTS SCT015CB OVC030
      TEMPO 3022/0101 2SM SHRA BR OVC012
     FM010400 15012KT 6SM BR OVC015
     FM010700 15009KT 2SM BR OVC008=



000
FTUS43 KMPX 301300 AAA
TAFAXN
TAF AMD
KAXN 301349Z 3014/0112 13014G20KT 1 1/2SM BR OVC002
      TEMPO 3014/3016 3SM BR
     FM301600 12018G29KT P6SM SCT004 BKN009 OVC090
     FM301800 13020G28KT P6SM BKN015 OVC070
     FM302100 13021G27KT P6SM -SHRA BKN025 OVC050
      TEMPO 3022/0101 4SM SHRA BR OVC015
     FM010600 13017KT P6SM OVC015
     FM010900 14015KT 5SM BR OVC004=



000
FTUS43 KMPX 301100
TAFSTC
TAF
KSTC 301139Z 3012/0112 11011KT 6SM BR OVC006
     FM301400 11012G18KT P6SM OVC008
     FM301700 12013G21KT P6SM SCT015 BKN150
     FM010000 12012KT P6SM VCSH SCT015 OVC050
      TEMPO 0102/0105 4SM -SHRA BR OVC015
     FM010800 13013KT 6SM BR OVC007=



000
FTUS43 KMPX 301100
TAFEAU
TAF
KEAU 301139Z 3012/0112 08007KT P6SM OVC010
     FM301600 10008KT P6SM BKN014
     FM301800 11009KT P6SM SCT020 SCT250
     FM302200 12007KT P6SM SCT030 BKN250
     FM010600 13008KT P6SM VCSH SCT015 OVC050
     FM010900 13010KT 6SM BR VCSH BKN010 OVC035=



000
FTUS43 KMPX 301100
TAFRWF
TAF
KRWF 301139Z 3012/0112 09012KT P6SM OVC007
     FM301400 11012G18KT P6SM OVC010
     FM301600 13014G21KT P6SM BKN020
     FM302100 14015G23KT P6SM VCTS SCT015CB OVC030
      TEMPO 3022/0101 2SM SHRA BR OVC012
     FM010400 15012KT 6SM BR OVC015
     FM010700 15009KT 2SM BR OVC008=



000
FTUS43 KMPX 301100
TAFAXN
TAF
KAXN 301139Z 3012/0112 13014G20KT 1 1/2SM BR OVC002
     FM301400 12016G23KT 3SM BR OVC004
     FM301600 12018G29KT P6SM BKN010 OVC090
     FM301800 13020G28KT P6SM SCT015 OVC070
     FM302100 13021G27KT P6SM -SHRA BKN025 OVC050
      TEMPO 3022/0101 4SM SHRA BR OVC015
     FM010600 13017KT P6SM OVC015
     FM010900 14015KT 5SM BR OVC004=



000
FTUS43 KMPX 301100
TAFMSP
TAF
KMSP 301139Z 3012/0118 09010KT P6SM OVC009
     FM301400 10011KT P6SM OVC011
     FM301700 11012KT P6SM SCT020 BKN250
     FM302000 12012G19KT P6SM SCT025 BKN050
     FM010100 13011KT P6SM VCSH BKN025 OVC050
     FM010900 14011KT 6SM -SHRA BR BKN008 OVC015=



000
FTUS43 KMPX 301000 AAA
TAFRWF
TAF AMD
KRWF 301000Z 3010/0106 09009KT P6SM BKN007
      TEMPO 3010/3012 OVC005
     FM301500 13012G19KT P6SM BKN012 OVC100
     FM301900 13014G21KT P6SM BKN025 BKN050
     FM302100 14015G23KT 6SM -RA BR OVC030
      TEMPO 0100/0104 4SM -RA BR OVC020
     FM010400 15012KT P6SM SCT030 BKN050=



000
FTUS43 KMPX 300800 AAA
TAFMSP
TAF AMD
KMSP 300857Z 3009/0112 07010KT P6SM OVC010
      TEMPO 3009/3012 OVC008
     FM301400 10010KT P6SM BKN012
     FM301600 11011KT P6SM SCT020 BKN250
     FM302000 12012G19KT P6SM SCT025 BKN050
     FM010200 13011KT 6SM -RA BR SCT020 BKN040
      TEMPO 0104/0108 4SM -RA BR SCT015 BKN030
     FM011000 14011KT P6SM SCT030 BKN050=



000
FTUS43 KMPX 300700 AAA
TAFSTC
TAF AMD
KSTC 300733Z 3008/0106 09006KT P6SM OVC008
     FM301400 11011KT P6SM BKN012
     FM301600 12013G21KT P6SM SCT020 BKN150
     FM302300 12011KT 6SM -SHRA BR SCT025 BKN050
      TEMPO 0102/0106 5SM -RA BR SCT020 BKN030=



000
FTUS43 KMPX 300700 AAA
TAFAXN
TAF AMD
KAXN 300732Z 3008/0106 11012KT P6SM OVC004
     FM301300 12014G20KT P6SM BKN006 OVC015
     FM301600 12016G25KT P6SM FEW008 SCT015 BKN100
     FM302100 13015G23KT 6SM -SHRA BR SCT025 BKN050
      TEMPO 0102/0106 4SM -RA BR SCT020 BKN030=



000
FTUS43 KMPX 300500
TAFEAU
TAF
KEAU 300534Z 3006/0106 05009KT P6SM SCT007 OVC014
      TEMPO 3008/3010 BKN007
     FM301000 07006KT P6SM BKN007 OVC011
     FM301400 10006KT P6SM SCT007 BKN015
     FM301600 12009KT P6SM SCT020 SCT080
     FM010400 13008KT 6SM -RA BR SCT020 BKN040=



000
FTUS43 KMPX 300500
TAFRWF
TAF
KRWF 300534Z 3006/0106 10009KT P6SM SCT010
      TEMPO 3008/3010 5SM BR BKN010
     FM301000 11009KT P6SM OVC010
     FM301500 13012G19KT P6SM SCT015 SCT070
     FM301900 13014G21KT P6SM SCT030 BKN050
     FM302100 14015G23KT 6SM -RA BR SCT025 BKN040
      TEMPO 0100/0104 4SM -RA BR SCT020 BKN030
     FM010400 15012KT P6SM SCT030 BKN050=



000
FTUS43 KMPX 300500
TAFAXN
TAF
KAXN 300534Z 3006/0106 11012KT P6SM OVC009
     FM301400 12014KT P6SM SCT009 OVC015
     FM301600 12016G25KT P6SM SCT015 SCT035
     FM302100 13015G23KT 6SM -SHRA BR SCT025 BKN050
      TEMPO 0102/0106 4SM -RA BR SCT020 BKN030=



000
FTUS43 KMPX 300500
TAFSTC
TAF
KSTC 300534Z 3006/0106 09006KT P6SM SCT008 OVC011
      TEMPO 3009/3013 BKN008
     FM301400 11011KT P6SM SCT010 BKN020
     FM301700 12013G21KT P6SM SCT020 SCT050
     FM302300 12011KT 6SM -SHRA BR SCT025 BKN050
      TEMPO 0102/0106 5SM -RA BR SCT020 BKN030=



000
FTUS43 KMPX 300500
TAFMSP
TAF
KMSP 300534Z 3006/0112 06008KT P6SM SCT014
      TEMPO 3007/3009 BKN014
     FM300900 08008KT P6SM BKN014
     FM301500 11010KT P6SM SCT020 SCT250
     FM302000 12012G19KT P6SM SCT025 BKN050
     FM010200 13011KT 6SM -RA BR SCT020 BKN040
      TEMPO 0104/0108 4SM -RA BR SCT015 BKN030
     FM011000 14011KT P6SM SCT030 BKN050=



000
FTUS43 KMPX 300400 AAB
TAFAXN
TAF AMD
KAXN 300411Z 3004/3024 11009KT 6SM BR SCT004 OVC012
      TEMPO 3009/3013 2SM BR BKN004
     FM301400 12014KT P6SM SCT008 OVC015
     FM301600 12016G25KT P6SM SCT015 SCT035
     FM302100 13015G23KT 6SM -SHRA BR SCT025 BKN050=



000
FTUS43 KMPX 300400 AAA
TAFSTC
TAF AMD
KSTC 300410Z 3004/3024 09006KT P6SM SCT008 BKN012
      TEMPO 3009/3013 5SM BR BKN008
     FM301400 11011KT P6SM SCT010 BKN020
     FM301600 12013G21KT P6SM SCT020 SCT050
     FM302300 12011KT 6SM -SHRA BR SCT025 BKN050=



000
FTUS43 KMPX 300200 AAA
TAFMSP
TAF AMD
KMSP 300259Z 3003/0106 06008KT P6SM FEW030
     FM300900 09007KT P6SM SCT012
     FM301600 11010KT P6SM SCT030 SCT250
     FM302000 12012G19KT P6SM SCT025 BKN050
     FM010200 13011KT 6SM -RA BR SCT020 BKN040=



000
FTUS43 KMPX 300200 AAA
TAFAXN
TAF AMD
KAXN 300259Z 3003/3024 09007KT P6SM SCT020
     FM300800 11009KT 4SM BR SCT004 OVC015
      TEMPO 3009/3013 1SM BR BKN004
     FM301400 12014KT P6SM SCT008 OVC015
     FM301600 12016G25KT P6SM SCT015 SCT035
     FM302100 13015G23KT 6SM -SHRA BR SCT025 BKN050=



000
FTUS43 KMPX 292300 CCA
TAFSTC
TAF COR
KSTC 292332Z 3000/3024 07008KT P6SM SCT025
     FM300900 09006KT P6SM SCT008 BKN012
      TEMPO 3009/3013 5SM BR BKN008
     FM301400 11011KT P6SM SCT010 BKN020
     FM301600 12013G21KT P6SM SCT020 SCT050
     FM302300 12011KT 6SM -SHRA BR SCT025 BKN050=



000
FTUS43 KMPX 292300
TAFRWF
TAF
KRWF 292331Z 3000/3024 07008KT P6SM SCT030
     FM300400 10009KT P6SM SCT012 SCT025
      TEMPO 3009/3013 5SM BR OVC008
     FM301400 13012G19KT P6SM SCT020 SCT070
     FM301900 14014G21KT P6SM SCT030 BKN050
     FM302100 15012G20KT 6SM -RA BR SCT025 BKN040=



000
FTUS43 KMPX 292300
TAFEAU
TAF
KEAU 292331Z 3000/3024 03007KT P6SM FEW025
     FM300700 07003KT 4SM BR SCT008 SCT015
      TEMPO 3009/3013 2SM BR OVC008
     FM301400 10006KT P6SM SCT020
     FM301800 12009KT P6SM SCT030 SCT080=



000
FTUS43 KMPX 292300
TAFMSP
TAF
KMSP 292331Z 3000/0106 06008KT P6SM SCT030
     FM300900 09007KT P6SM SCT012
     FM301600 11010KT P6SM SCT030 SCT250
     FM302000 12012G19KT P6SM SCT025 BKN050
     FM010200 13011KT 6SM -RA BR SCT020 BKN040=



000
FTUS43 KMPX 292300
TAFSTC
TAF
KSTC 292331Z 3000/3024 06009KT P6SM OVC022
     FM300130 08008KT P6SM SCT012 SCT025
     FM300900 09006KT P6SM SCT008 BKN012
      TEMPO 3009/3013 5SM BR BKN008
     FM301400 11011KT P6SM SCT010 BKN020
     FM301600 12013G21KT P6SM SCT020 SCT050
     FM302300 12011KT 6SM -SHRA BR SCT025 BKN050=



000
FTUS43 KMPX 292300
TAFAXN
TAF
KAXN 292331Z 3000/3024 06010KT P6SM OVC015
     FM300200 08009KT P6SM BKN025
     FM300400 09007KT P6SM SCT020
     FM300800 11009KT 4SM BR SCT004 OVC015
      TEMPO 3009/3013 1SM BR BKN004
     FM301400 12014KT P6SM SCT008 OVC015
     FM301600 12016G25KT P6SM SCT015 SCT035
     FM302100 13015G23KT 6SM -SHRA BR SCT025 BKN050=



000
FTUS43 KMPX 292100 AAA
TAFSTC
TAF AMD
KSTC 292105Z 2921/3018 05009KT P6SM OVC022
     FM300300 07008KT P6SM SCT025
     FM301100 09004KT 6SM BR BKN008
     FM301400 10008KT P6SM SCT015 SCT250=



000
FTUS43 KMPX 292100 AAA
TAFRWF
TAF AMD
KRWF 292104Z 2921/3018 07008KT P6SM SCT022 BKN035
     FM300400 10006KT P6SM SCT012 SCT025
     FM300900 11007KT 5SM BR OVC008
     FM301400 13011KT P6SM SCT020 OVC090=



000
FTUS43 KMPX 292000 AAB
TAFMSP
TAF AMD
KMSP 292053Z 2921/3024 02010KT P6SM OVC022
     FM300000 03009KT P6SM SCT020 BKN030
     FM300300 05007KT P6SM SCT030
     FM300900 09007KT P6SM SCT012
     FM301600 10010KT P6SM SCT030 SCT250=



000
FTUS43 KMPX 292000 AAA
TAFEAU
TAF AMD
KEAU 292014Z 2920/3018 01008KT P6SM SCT030
     FM300000 04007KT P6SM FEW025
     FM300700 07003KT 4SM BR SCT008
     FM301000 VRB02KT 2SM BR OVC005
     FM301400 10006KT P6SM BKN015=



000
FTUS43 KMPX 291900 AAA
TAFAXN
TAF AMD
KAXN 291911Z 2919/3018 06010KT P6SM OVC015
     FM292200 08009KT P6SM BKN025
     FM300000 09007KT P6SM SCT020
     FM300900 11009KT 4SM BR BKN004 OVC012
     FM301500 12014KT P6SM SCT008 OVC015=



000
FTUS43 KMPX 291900 AAA
TAFMSP
TAF AMD
KMSP 291909Z 2919/3024 03011KT P6SM BKN025
     FM292100 04009KT P6SM SCT022 BKN030
     FM292300 05007KT P6SM SCT030
     FM300900 09007KT P6SM SCT012
     FM301600 10010KT P6SM SCT030 SCT250=



000
FTUS43 KMPX 291700
TAFMSP
TAF
KMSP 291736Z 2918/3024 03011KT P6SM BKN015 BKN035
     FM292100 04009KT P6SM SCT025 BKN035
     FM292300 05007KT P6SM SCT030
     FM300900 09007KT P6SM SCT012
     FM301600 10010KT P6SM SCT030 SCT250=



000
FTUS43 KMPX 291700
TAFEAU
TAF
KEAU 291736Z 2918/3018 02011KT P6SM BKN018 OVC035
     FM292200 03010KT P6SM SCT025 BKN035
     FM300000 04007KT P6SM SCT025
     FM300700 07003KT 4SM BR SCT008
     FM301000 VRB02KT 2SM BR OVC005
     FM301400 10006KT P6SM BKN015=



000
FTUS43 KMPX 291700
TAFRWF
TAF
KRWF 291736Z 2918/3018 05008KT P6SM BKN015 OVC035
     FM292200 07008KT P6SM SCT015 BKN035
     FM300900 11007KT 5SM BR OVC008
     FM301400 13011KT P6SM SCT020 OVC090=



000
FTUS43 KMPX 291700
TAFSTC
TAF
KSTC 291736Z 2918/3018 05009KT P6SM BKN017 OVC035
     FM292200 07008KT P6SM SCT025
     FM301100 09004KT 6SM BR BKN008
     FM301400 10008KT P6SM SCT015 SCT250=



000
FTUS43 KMPX 291700
TAFAXN
TAF
KAXN 291736Z 2918/3018 05010KT P6SM BKN008 OVC015
     FM292200 08009KT P6SM BKN025
     FM300000 09007KT P6SM SCT020
     FM300900 11009KT 4SM BR BKN004 OVC012
     FM301500 12014KT P6SM SCT008 OVC015=



000
FTUS43 KMPX 291600 AAB
TAFMSP
TAF AMD
KMSP 291619Z 2916/3018 03011KT P6SM BKN012 OVC025
     FM291800 03011KT P6SM BKN018 OVC035
     FM292200 05009KT P6SM SCT025 BKN035
     FM300900 08007KT P6SM SCT012=



000
FTUS43 KMPX 291500 CCA
TAFEAU
TAF COR
KEAU 291519Z 2915/3012 02011KT P6SM BKN014 OVC025
      TEMPO 2915/2917 -SHRA SCT014 OVC025
     FM291700 02011KT P6SM OVC015
     FM291900 03010KT P6SM BKN015 OVC025
     FM300000 04007KT P6SM SCT015
     FM300600 07003KT 2SM BR SCT004
     FM300900 VRB02KT 1/2SM FG VV002=



000
FTUS43 KMPX 291500 AAA
TAFRWF
TAF AMD
KRWF 291518Z 2915/3012 04008KT P6SM OVC014
     FM291800 06008KT P6SM OVC020
     FM292100 06008KT P6SM SCT015 BKN035
     FM300900 11007KT 3SM BR OVC005=



000
FTUS43 KMPX 291500 AAA
TAFEAU
TAF AMD
KEAU 291515Z 2915/3012 02011KT P6SM BKN014 OVC025
      TEMPO 2915/2917 -SHRA SCT014 OVC025
     FM291700 02011KT P6SM -RA SCT007 OVC010
     FM291900 03010KT P6SM BKN015 OVC025
     FM300000 04007KT P6SM SCT015
     FM300600 07003KT 2SM BR SCT004
     FM300900 VRB02KT 1/2SM FG VV002=



000
FTUS43 KMPX 291500 AAA
TAFAXN
TAF AMD
KAXN 291501Z 2915/3012 04010KT 5SM BR BKN005 OVC010
     FM291630 05010KT P6SM SCT007 OVC015
     FM292000 08010KT P6SM SCT020 BKN035
     FM300000 09007KT P6SM SCT010
     FM300900 11009KT 6SM BR BKN004=



000
FTUS43 KMPX 291400 AAA
TAFMSP
TAF AMD
KMSP 291459Z 2915/3018 03011G19KT 6SM -RA BKN017 OVC025
     FM291630 03011KT P6SM BKN018 OVC035
     FM292200 05009KT P6SM SCT025 BKN035
     FM300900 08007KT P6SM SCT012=



    US Dept of Commerce
    National Oceanic and Atmospheric Administration
    National Weather Service
    1325 East West Highway
    Silver Spring, MD 20910
    Page Author: NWS Internet Services Team
Disclaimer
Information Quality
Credits
Glossary
Privacy Policy
Freedom of Information Act (FOIA)
About Us
Career Opportunities